Time;durP1;ratioP1;P1;durP2;ratioP2;P2;SDS_P1;SDS_P2;PMS_P1;PMS_P2;Temp;Humidity;BMP_temperature;BMP_pressure;BME280_temperature;BME280_humidity;BME280_pressure;Samples;Min_cycle;Max_cycle;Signal;HPM_P1;HPM_P2
2023/07/25 00:02:25;;;;;;;1.08;0.65;;;16.60;76.80;;;;;;5077854;28;20044;-60
2023/07/25 00:04:51;;;;;;;1.55;0.68;;;16.50;76.90;;;;;;5076434;28;20066;-60
2023/07/25 00:07:16;;;;;;;0.80;0.80;;;16.50;77.00;;;;;;5076937;28;20036;-60
2023/07/25 00:09:42;;;;;;;1.05;0.95;;;16.50;77.00;;;;;;5074846;28;20036;-60
2023/07/25 00:12:08;;;;;;;1.00;0.90;;;16.50;76.90;;;;;;5064921;28;20467;-60
2023/07/25 00:14:34;;;;;;;3.03;0.95;;;16.50;77.00;;;;;;5081533;28;20044;-60
2023/07/25 00:17:01;;;;;;;2.85;0.80;;;16.50;77.00;;;;;;5074159;28;20066;-60
2023/07/25 00:19:27;;;;;;;1.13;1.05;;;16.50;77.00;;;;;;5078197;28;20020;-60
2023/07/25 00:21:53;;;;;;;0.50;0.50;;;16.50;77.00;;;;;;5080597;28;20021;-60
2023/07/25 00:24:18;;;;;;;0.50;0.50;;;16.50;77.00;;;;;;5077041;28;20032;-60
2023/07/25 00:26:44;;;;;;;0.80;0.70;;;16.40;77.00;;;;;;5050453;28;20029;-61
2023/07/25 00:29:10;;;;;;;0.63;0.63;;;16.50;77.10;;;;;;5072984;28;20052;-63
2023/07/25 00:31:35;;;;;;;1.02;0.98;;;16.50;77.10;;;;;;5073407;28;20340;-60
2023/07/25 00:34:03;;;;;;;2.15;1.20;;;16.50;77.10;;;;;;5071616;28;20106;-61
2023/07/25 00:36:29;;;;;;;0.95;0.65;;;16.40;77.10;;;;;;5071612;28;20040;-59
2023/07/25 00:38:55;;;;;;;0.82;0.68;;;16.40;77.10;;;;;;5076416;28;20021;-60
2023/07/25 00:41:21;;;;;;;1.42;0.80;;;16.40;77.10;;;;;;5072471;28;20498;-60
2023/07/25 00:43:46;;;;;;;0.63;0.63;;;16.30;77.10;;;;;;5075257;28;20036;-60
2023/07/25 00:46:12;;;;;;;0.40;0.40;;;16.30;77.20;;;;;;5077492;28;20078;-61
2023/07/25 00:48:38;;;;;;;1.13;0.63;;;16.20;77.10;;;;;;5081729;28;20028;-61
2023/07/25 00:51:04;;;;;;;1.02;0.88;;;16.30;77.20;;;;;;5076575;28;20035;-60
2023/07/25 00:53:30;;;;;;;1.00;0.75;;;16.20;77.10;;;;;;5076171;28;20112;-61
2023/07/25 00:55:56;;;;;;;1.23;0.88;;;16.20;77.20;;;;;;5083403;28;20424;-61
2023/07/25 00:58:22;;;;;;;0.95;0.52;;;16.20;77.20;;;;;;5078460;28;20643;-61
2023/07/25 01:00:48;;;;;;;0.77;0.57;;;16.10;77.20;;;;;;5079442;28;20051;-61
2023/07/25 01:03:14;;;;;;;0.73;0.60;;;16.10;77.10;;;;;;5084355;28;20473;-60
2023/07/25 01:05:46;;;;;;;1.00;0.73;;;16.10;77.10;;;;;;5081586;28;20048;-60
2023/07/25 01:08:12;;;;;;;0.98;0.75;;;16.10;77.10;;;;;;5074836;28;20125;-61
2023/07/25 01:10:41;;;;;;;1.33;0.95;;;16.00;77.20;;;;;;5082403;28;20449;-60
2023/07/25 01:13:06;;;;;;;1.35;0.90;;;16.00;77.20;;;;;;5072395;28;20200;-63
2023/07/25 01:15:34;;;;;;;0.70;0.70;;;16.00;77.10;;;;;;5072173;28;20060;-62
2023/07/25 01:18:00;;;;;;;2.60;1.05;;;16.00;77.10;;;;;;5075653;28;20376;-62
2023/07/25 01:20:26;;;;;;;1.52;0.70;;;16.00;77.10;;;;;;5083475;28;20032;-62
2023/07/25 01:22:54;;;;;;;0.95;0.70;;;15.90;77.70;;;;;;5080500;28;20028;-62
2023/07/25 01:25:20;;;;;;;0.75;0.75;;;15.90;77.10;;;;;;5082830;28;20024;-63
2023/07/25 01:27:46;;;;;;;0.60;0.60;;;15.90;77.20;;;;;;5086450;28;20501;-60
2023/07/25 01:30:12;;;;;;;1.80;0.85;;;15.80;77.30;;;;;;5078083;28;20032;-60
2023/07/25 01:32:38;;;;;;;4.68;0.70;;;15.80;77.30;;;;;;5073998;28;20035;-61
2023/07/25 01:35:04;;;;;;;0.70;0.70;;;15.80;77.30;;;;;;5071582;28;20025;-61
2023/07/25 01:37:29;;;;;;;1.10;0.80;;;15.70;77.40;;;;;;5082415;28;20024;-61
2023/07/25 01:39:55;;;;;;;1.30;0.98;;;15.70;77.50;;;;;;5077193;28;20031;-61
2023/07/25 01:42:21;;;;;;;1.20;1.10;;;15.70;77.40;;;;;;5078418;28;20028;-61
2023/07/25 01:44:46;;;;;;;3.75;0.73;;;15.70;77.40;;;;;;5076058;28;20036;-61
2023/07/25 01:47:12;;;;;;;1.77;0.68;;;15.60;77.40;;;;;;5081286;28;20096;-61
2023/07/25 01:49:38;;;;;;;0.68;0.68;;;15.70;77.60;;;;;;5076482;28;20036;-61
2023/07/25 01:52:04;;;;;;;1.42;1.00;;;15.70;77.60;;;;;;5081218;28;20032;-61
2023/07/25 01:54:30;;;;;;;1.15;0.90;;;15.60;77.50;;;;;;5078067;28;20037;-62
2023/07/25 01:56:55;;;;;;;0.60;0.60;;;15.60;77.50;;;;;;5074573;28;20080;-61
2023/07/25 01:59:21;;;;;;;1.55;1.00;;;15.70;77.50;;;;;;5080253;28;20021;-61
2023/07/25 02:01:47;;;;;;;0.88;0.80;;;15.60;77.40;;;;;;5076787;28;20032;-61
2023/07/25 02:04:13;;;;;;;1.13;0.90;;;15.60;77.50;;;;;;5079146;28;20029;-61
2023/07/25 02:06:38;;;;;;;0.95;0.80;;;15.60;77.50;;;;;;5076535;28;20392;-61
2023/07/25 02:09:04;;;;;;;0.70;0.70;;;15.60;77.50;;;;;;5074819;28;20168;-61
2023/07/25 02:11:30;;;;;;;0.82;0.82;;;15.60;77.50;;;;;;5076708;28;20060;-61
2023/07/25 02:13:55;;;;;;;1.00;0.80;;;15.50;77.40;;;;;;5076420;28;20035;-61
2023/07/25 02:16:21;;;;;;;0.73;0.70;;;15.50;77.50;;;;;;5074440;28;20365;-61
2023/07/25 02:18:47;;;;;;;1.58;0.75;;;15.50;77.60;;;;;;5075732;28;20029;-61
2023/07/25 02:21:12;;;;;;;0.60;0.60;;;15.50;77.60;;;;;;5077207;28;20157;-60
2023/07/25 02:23:38;;;;;;;0.70;0.50;;;15.50;77.60;;;;;;5078672;28;20041;-61
2023/07/25 02:26:04;;;;;;;1.58;0.65;;;15.50;77.60;;;;;;5080741;28;20202;-60
2023/07/25 02:28:29;;;;;;;1.92;1.15;;;15.50;77.50;;;;;;5078700;28;20031;-60
2023/07/25 02:30:55;;;;;;;0.85;0.73;;;15.50;77.50;;;;;;5081608;28;20028;-60
2023/07/25 02:33:21;;;;;;;1.73;0.70;;;15.50;77.40;;;;;;5073297;28;20579;-61
2023/07/25 02:35:46;;;;;;;2.53;1.00;;;15.40;77.40;;;;;;5075416;28;20028;-62
2023/07/25 02:38:12;;;;;;;0.68;0.60;;;15.40;77.50;;;;;;5072107;28;20165;-61
2023/07/25 02:40:38;;;;;;;1.13;0.77;;;15.30;77.50;;;;;;5080050;28;20036;-64
2023/07/25 02:43:06;;;;;;;0.70;0.70;;;15.30;77.60;;;;;;5077575;28;20035;-60
2023/07/25 02:45:32;;;;;;;1.40;0.80;;;15.30;77.60;;;;;;5081537;28;20032;-63
2023/07/25 02:47:57;;;;;;;2.75;1.10;;;15.30;77.70;;;;;;5080994;28;20020;-62
2023/07/25 02:50:23;;;;;;;2.63;0.80;;;15.30;77.60;;;;;;5073909;28;20395;-61
2023/07/25 02:52:49;;;;;;;1.10;0.95;;;15.20;77.70;;;;;;5072805;28;20115;-61
2023/07/25 02:55:15;;;;;;;1.27;0.88;;;15.20;77.70;;;;;;5069701;28;20151;-61
2023/07/25 02:57:40;;;;;;;0.80;0.80;;;15.20;77.70;;;;;;5070978;28;20032;-61
2023/07/25 03:00:07;;;;;;;0.70;0.68;;;15.20;77.70;;;;;;5072619;28;20059;-61
2023/07/25 03:02:33;;;;;;;2.28;0.82;;;15.20;77.60;;;;;;5072455;28;20028;-61
2023/07/25 03:04:58;;;;;;;1.25;0.57;;;15.20;77.70;;;;;;5073530;28;20392;-61
2023/07/25 03:07:24;;;;;;;1.20;0.60;;;15.20;77.70;;;;;;5059370;28;20473;-61
2023/07/25 03:09:50;;;;;;;0.75;0.57;;;15.20;77.70;;;;;;5083529;28;20176;-61
2023/07/25 03:12:16;;;;;;;0.98;0.73;;;15.10;77.60;;;;;;5085286;28;20035;-61
2023/07/25 03:14:41;;;;;;;1.35;1.20;;;15.10;77.60;;;;;;5079073;28;20020;-61
2023/07/25 03:17:07;;;;;;;0.60;0.60;;;15.10;77.60;;;;;;5078417;28;20086;-61
2023/07/25 03:19:33;;;;;;;1.23;1.08;;;15.10;77.60;;;;;;5079693;28;20034;-61
2023/07/25 03:21:58;;;;;;;0.50;0.50;;;15.10;77.70;;;;;;5077654;28;20098;-61
2023/07/25 03:24:24;;;;;;;1.00;0.90;;;15.00;77.60;;;;;;5072411;28;20410;-62
2023/07/25 03:26:50;;;;;;;2.03;1.02;;;15.00;77.70;;;;;;5073097;28;20443;-62
2023/07/25 03:29:15;;;;;;;1.08;0.98;;;15.00;77.70;;;;;;5077612;28;20032;-61
2023/07/25 03:31:41;;;;;;;0.95;0.77;;;15.00;77.80;;;;;;5077820;28;20067;-62
2023/07/25 03:34:07;;;;;;;1.60;0.90;;;15.00;77.80;;;;;;5068733;28;20043;-62
2023/07/25 03:36:33;;;;;;;2.50;0.70;;;15.00;77.80;;;;;;5071590;28;20031;-61
2023/07/25 03:38:58;;;;;;;0.73;0.73;;;15.00;77.90;;;;;;5068716;28;20051;-61
2023/07/25 03:41:24;;;;;;;1.40;0.93;;;15.00;78.00;;;;;;5074829;28;20072;-61
2023/07/25 03:43:49;;;;;;;1.48;0.90;;;15.00;78.00;;;;;;5077870;28;20032;-62
2023/07/25 03:46:15;;;;;;;1.70;0.73;;;15.00;77.90;;;;;;5070721;28;20040;-62
2023/07/25 03:48:41;;;;;;;1.60;1.05;;;14.90;77.80;;;;;;5086884;28;20032;-61
2023/07/25 03:51:06;;;;;;;0.77;0.73;;;14.90;77.80;;;;;;5073363;28;20024;-60
2023/07/25 03:53:32;;;;;;;2.67;1.42;;;14.90;77.90;;;;;;5079564;28;20034;-61
2023/07/25 03:55:58;;;;;;;1.23;0.95;;;14.90;77.80;;;;;;5079199;28;20035;-61
2023/07/25 03:58:23;;;;;;;1.45;0.88;;;14.90;77.90;;;;;;5083210;28;20024;-61
2023/07/25 04:00:49;;;;;;;1.05;0.70;;;14.90;77.90;;;;;;5075797;28;20021;-61
2023/07/25 04:03:15;;;;;;;0.82;0.70;;;14.90;77.90;;;;;;5083372;28;20115;-61
2023/07/25 04:05:40;;;;;;;0.85;0.60;;;14.90;77.90;;;;;;5083285;28;20032;-61
2023/07/25 04:08:06;;;;;;;0.80;0.70;;;14.90;77.90;;;;;;5080136;28;20036;-61
2023/07/25 04:10:32;;;;;;;0.52;0.52;;;14.90;78.00;;;;;;5074378;28;20043;-61
2023/07/25 04:12:57;;;;;;;0.98;0.88;;;14.90;78.00;;;;;;5077145;28;20043;-61
2023/07/25 04:15:23;;;;;;;2.47;1.25;;;14.90;78.10;;;;;;5080408;28;20060;-61
2023/07/25 04:17:48;;;;;;;0.95;0.70;;;14.90;78.20;;;;;;5071816;28;20024;-61
2023/07/25 04:20:14;;;;;;;1.67;0.68;;;14.90;78.20;;;;;;5075595;28;20032;-61
2023/07/25 04:22:40;;;;;;;3.05;0.68;;;14.90;78.20;;;;;;5079992;28;20137;-61
2023/07/25 04:25:06;;;;;;;0.98;0.65;;;14.90;78.30;;;;;;5074422;28;20131;-61
2023/07/25 04:27:32;;;;;;;0.75;0.60;;;14.90;78.50;;;;;;5077919;28;20044;-61
2023/07/25 04:29:57;;;;;;;1.58;0.88;;;14.90;78.60;;;;;;5077552;28;20120;-60
2023/07/25 04:32:23;;;;;;;1.58;0.90;;;14.90;78.50;;;;;;5076146;28;20032;-61
2023/07/25 04:34:49;;;;;;;1.55;1.23;;;14.90;78.50;;;;;;5080534;28;20067;-61
2023/07/25 04:37:14;;;;;;;0.73;0.55;;;14.90;78.60;;;;;;5082173;28;20032;-60
2023/07/25 04:39:40;;;;;;;3.97;0.85;;;14.80;78.60;;;;;;5073091;28;20028;-60
2023/07/25 04:42:06;;;;;;;1.65;1.05;;;14.80;78.60;;;;;;5077561;28;20055;-60
2023/07/25 04:44:32;;;;;;;0.80;0.80;;;14.80;78.60;;;;;;5078595;28;20123;-60
2023/07/25 04:46:57;;;;;;;2.13;1.00;;;14.80;78.60;;;;;;5076943;28;20063;-61
2023/07/25 04:49:25;;;;;;;0.82;0.80;;;14.90;78.70;;;;;;5078509;28;20020;-61
2023/07/25 04:51:50;;;;;;;1.38;0.77;;;14.90;78.80;;;;;;5074826;28;20032;-61
2023/07/25 04:54:16;;;;;;;2.97;0.90;;;14.90;78.80;;;;;;5075172;28;20075;-61
2023/07/25 04:56:42;;;;;;;4.25;1.00;;;14.90;79.00;;;;;;5077197;28;20954;-61
2023/07/25 04:59:08;;;;;;;1.73;0.98;;;14.90;79.10;;;;;;5082194;28;20043;-61
2023/07/25 05:01:34;;;;;;;1.33;1.10;;;15.00;79.10;;;;;;5076837;28;20073;-61
2023/07/25 05:03:59;;;;;;;0.77;0.75;;;15.00;79.00;;;;;;5073928;28;20033;-60
2023/07/25 05:06:25;;;;;;;1.67;1.10;;;15.00;79.00;;;;;;5078365;28;20059;-61
2023/07/25 05:08:51;;;;;;;0.70;0.70;;;15.10;79.00;;;;;;5073686;28;20033;-61
2023/07/25 05:11:16;;;;;;;3.05;1.70;;;15.10;79.00;;;;;;5073346;28;20071;-61
2023/07/25 05:13:42;;;;;;;4.10;1.23;;;15.20;79.00;;;;;;5074386;28;20036;-61
2023/07/25 05:16:08;;;;;;;2.45;1.25;;;15.20;79.00;;;;;;5073013;28;20356;-61
2023/07/25 05:18:33;;;;;;;2.47;1.60;;;15.20;79.00;;;;;;5084260;28;20028;-61
2023/07/25 05:20:59;;;;;;;1.73;1.30;;;15.30;79.00;;;;;;5073726;28;20067;-61
2023/07/25 05:23:25;;;;;;;1.65;1.30;;;15.40;79.00;;;;;;5070688;28;20456;-61
2023/07/25 05:25:50;;;;;;;3.42;1.70;;;15.50;79.00;;;;;;5080872;28;20030;-61
2023/07/25 05:28:19;;;;;;;6.10;1.23;;;15.50;78.90;;;;;;5078365;28;20063;-61
2023/07/25 05:30:44;;;;;;;2.85;1.17;;;15.70;78.80;;;;;;5080596;28;20833;-61
2023/07/25 05:33:10;;;;;;;2.80;1.27;;;15.70;78.70;;;;;;5069707;28;20078;-61
2023/07/25 05:35:36;;;;;;;0.70;0.70;;;15.80;78.70;;;;;;5080072;28;20551;-61
2023/07/25 05:38:02;;;;;;;2.45;1.08;;;15.90;78.60;;;;;;5070169;28;20424;-61
2023/07/25 05:40:28;;;;;;;2.97;1.55;;;16.00;78.60;;;;;;5071233;28;20035;-61
2023/07/25 05:42:53;;;;;;;2.63;1.05;;;16.00;78.60;;;;;;5072498;28;20028;-62
2023/07/25 05:45:19;;;;;;;2.35;1.00;;;16.20;78.60;;;;;;5067318;28;20058;-62
2023/07/25 05:47:46;;;;;;;1.00;0.90;;;16.20;78.50;;;;;;5067411;28;20127;-62
2023/07/25 05:50:12;;;;;;;1.23;0.88;;;16.30;78.40;;;;;;5073425;28;20035;-63
2023/07/25 05:52:37;;;;;;;3.28;1.00;;;16.30;78.30;;;;;;5066121;28;20036;-63
2023/07/25 05:55:03;;;;;;;1.38;0.90;;;16.30;78.30;;;;;;5072704;28;20024;-62
2023/07/25 05:57:29;;;;;;;1.70;1.15;;;16.40;78.10;;;;;;5076186;28;20036;-64
2023/07/25 05:59:55;;;;;;;4.25;1.25;;;16.40;78.00;;;;;;5078620;28;20024;-63
2023/07/25 06:02:20;;;;;;;5.80;0.77;;;16.40;78.50;;;;;;5079458;28;20028;-67
2023/07/25 06:04:46;;;;;;;2.78;1.33;;;16.40;77.90;;;;;;5075942;28;20031;-68
2023/07/25 06:07:13;;;;;;;6.63;1.30;;;16.40;77.80;;;;;;5073774;28;20135;-67
2023/07/25 06:09:39;;;;;;;1.48;0.93;;;16.40;77.80;;;;;;5075117;28;20442;-64
2023/07/25 06:12:07;;;;;;;0.98;0.77;;;16.50;77.90;;;;;;5075698;28;20040;-64
2023/07/25 06:14:32;;;;;;;0.90;0.80;;;16.50;77.80;;;;;;5081882;28;20040;-63
2023/07/25 06:16:58;;;;;;;1.52;0.98;;;16.60;77.80;;;;;;5069213;28;20029;-63
2023/07/25 06:19:23;;;;;;;1.40;1.02;;;16.60;77.80;;;;;;5072507;28;20032;-63
2023/07/25 06:21:49;;;;;;;1.10;0.90;;;16.60;77.70;;;;;;5071553;28;20164;-64
2023/07/25 06:24:15;;;;;;;4.85;1.48;;;16.60;77.70;;;;;;5074575;28;20130;-64
2023/07/25 06:26:41;;;;;;;1.23;1.10;;;16.60;77.80;;;;;;5076622;28;20032;-64
2023/07/25 06:29:07;;;;;;;1.35;1.00;;;16.60;77.90;;;;;;5067919;28;20182;-63
2023/07/25 06:31:33;;;;;;;1.17;0.77;;;16.60;78.00;;;;;;5075974;28;20498;-62
2023/07/25 06:33:58;;;;;;;2.38;1.30;;;16.60;78.10;;;;;;5053408;28;20062;-63
2023/07/25 06:36:24;;;;;;;1.83;1.00;;;16.50;78.10;;;;;;5059094;28;20376;-63
2023/07/25 06:38:50;;;;;;;4.60;1.00;;;16.60;78.30;;;;;;5059651;28;20376;-62
2023/07/25 06:41:15;;;;;;;1.38;0.85;;;16.60;78.30;;;;;;5069620;28;20043;-62
2023/07/25 06:43:41;;;;;;;5.45;0.80;;;16.70;78.30;;;;;;5067024;28;20394;-62
2023/07/25 06:46:07;;;;;;;0.80;0.70;;;16.80;78.20;;;;;;5067269;28;20059;-61
2023/07/25 06:48:32;;;;;;;0.93;0.80;;;16.80;78.00;;;;;;5060504;28;20384;-62
2023/07/25 06:50:58;;;;;;;1.40;0.90;;;16.80;77.90;;;;;;5064155;28;20096;-62
2023/07/25 06:53:24;;;;;;;4.50;1.85;;;16.90;78.00;;;;;;5065179;28;20021;-62
2023/07/25 06:55:49;;;;;;;6.95;2.05;;;17.00;78.10;;;;;;5064089;28;20032;-61
2023/07/25 06:58:15;;;;;;;2.70;1.23;;;17.00;78.10;;;;;;5061357;28;20028;-61
2023/07/25 07:00:41;;;;;;;1.52;0.90;;;17.10;78.10;;;;;;5068607;28;20029;-61
2023/07/25 07:03:07;;;;;;;2.00;1.00;;;17.20;78.00;;;;;;5066439;28;20515;-61
2023/07/25 07:05:33;;;;;;;1.02;0.90;;;17.20;77.90;;;;;;5067532;28;20036;-61
2023/07/25 07:07:59;;;;;;;0.77;0.77;;;17.30;77.80;;;;;;5064463;28;20033;-61
2023/07/25 07:10:25;;;;;;;1.40;1.02;;;17.40;77.50;;;;;;5069004;28;20407;-62
2023/07/25 07:12:53;;;;;;;1.60;0.80;;;17.50;77.40;;;;;;5072351;28;20016;-62
2023/07/25 07:15:23;;;;;;;1.25;0.68;;;17.60;77.30;;;;;;5072673;28;20048;-61
2023/07/25 07:17:51;;;;;;;0.60;0.55;;;17.50;77.40;;;;;;5067652;28;20041;-63
2023/07/25 07:20:16;;;;;;;1.13;0.77;;;17.50;77.40;;;;;;5067725;28;20159;-62
2023/07/25 07:22:42;;;;;;;0.50;0.50;;;17.50;77.40;;;;;;5057789;28;20112;-62
2023/07/25 07:25:08;;;;;;;3.10;0.82;;;17.50;77.40;;;;;;5068266;28;20425;-63
2023/07/25 07:27:34;;;;;;;1.45;0.60;;;17.50;77.30;;;;;;5067013;28;20040;-61
2023/07/25 07:29:59;;;;;;;1.85;0.60;;;17.50;77.30;;;;;;5071570;28;20029;-60
2023/07/25 07:32:25;;;;;;;4.28;0.60;;;17.50;77.20;;;;;;5062544;28;20547;-60
2023/07/25 07:34:51;;;;;;;1.75;0.95;;;17.50;77.10;;;;;;5074984;28;20111;-60
2023/07/25 07:37:16;;;;;;;1.45;0.85;;;17.60;76.80;;;;;;5067547;28;20036;-60
2023/07/25 07:39:42;;;;;;;1.58;0.68;;;17.60;76.60;;;;;;5075611;28;20055;-60
2023/07/25 07:42:08;;;;;;;1.95;0.80;;;17.70;76.50;;;;;;5064947;28;20086;-61
2023/07/25 07:44:33;;;;;;;0.88;0.82;;;17.70;76.30;;;;;;5074073;28;20035;-61
2023/07/25 07:46:59;;;;;;;0.40;0.40;;;17.80;76.20;;;;;;5070590;28;20029;-61
2023/07/25 07:49:24;;;;;;;2.45;0.45;;;17.90;75.80;;;;;;5058926;28;20036;-61
2023/07/25 07:51:51;;;;;;;0.38;0.38;;;18.10;75.70;;;;;;5063938;28;20043;-60
2023/07/25 07:54:17;;;;;;;0.47;0.47;;;18.10;75.50;;;;;;5069008;28;20502;-62
2023/07/25 07:56:42;;;;;;;0.50;0.40;;;18.10;75.40;;;;;;5073700;28;20123;-62
2023/07/25 07:59:08;;;;;;;1.27;0.40;;;18.10;75.40;;;;;;5069037;28;20044;-62
2023/07/25 08:01:34;;;;;;;0.80;0.50;;;18.20;75.40;;;;;;5068466;28;20032;-61
2023/07/25 08:04:00;;;;;;;1.88;0.70;;;18.20;74.50;;;;;;5078142;28;20016;-62
2023/07/25 08:06:25;;;;;;;2.50;0.98;;;18.30;74.60;;;;;;5065894;28;20392;-62
2023/07/25 08:08:51;;;;;;;0.90;0.52;;;18.40;74.50;;;;;;5074419;28;20500;-62
2023/07/25 08:11:16;;;;;;;1.63;0.70;;;18.50;74.10;;;;;;5069008;28;20388;-62
2023/07/25 08:13:42;;;;;;;1.10;0.80;;;18.70;74.00;;;;;;5069176;28;20490;-61
2023/07/25 08:16:08;;;;;;;0.75;0.32;;;18.80;73.70;;;;;;5065790;28;20033;-62
2023/07/25 08:18:33;;;;;;;1.50;0.75;;;18.80;73.50;;;;;;5066192;28;20021;-62
2023/07/25 08:21:00;;;;;;;1.67;0.55;;;18.90;73.00;;;;;;5066394;28;20028;-62
2023/07/25 08:23:26;;;;;;;0.82;0.68;;;18.80;70.90;;;;;;5076545;28;20124;-62
2023/07/25 08:25:53;;;;;;;0.70;0.70;;;18.70;70.60;;;;;;5075915;28;20075;-62
2023/07/25 08:28:19;;;;;;;0.20;0.20;;;18.70;70.40;;;;;;5077947;28;20032;-61
2023/07/25 08:30:45;;;;;;;0.30;0.30;;;18.80;70.70;;;;;;5074719;28;20036;-61
2023/07/25 08:33:15;;;;;;;0.52;0.52;;;19.00;70.50;;;;;;5066625;28;20073;-61
2023/07/25 08:35:41;;;;;;;4.55;0.50;;;19.10;70.40;;;;;;5069880;28;20036;-61
2023/07/25 08:38:07;;;;;;;0.60;0.45;;;19.20;70.10;;;;;;5077472;28;20053;-63
2023/07/25 08:40:33;;;;;;;0.75;0.35;;;19.30;70.00;;;;;;5072555;28;20021;-61
2023/07/25 08:43:06;;;;;;;0.65;0.52;;;19.30;69.90;;;;;;5073293;28;20043;-62
2023/07/25 08:45:33;;;;;;;0.40;0.40;;;19.30;69.70;;;;;;5070555;28;20501;-61
2023/07/25 08:48:04;;;;;;;1.23;0.60;;;19.40;69.60;;;;;;5066722;28;20483;-61
2023/07/25 08:50:31;;;;;;;3.10;0.90;;;19.70;69.40;;;;;;5077408;28;20096;-62
2023/07/25 08:52:59;;;;;;;4.15;0.60;;;19.90;68.90;;;;;;5071691;28;20044;-61
2023/07/25 08:55:26;;;;;;;0.40;0.30;;;19.90;68.00;;;;;;5069948;28;20040;-61
2023/07/25 08:57:52;;;;;;;0.32;0.32;;;20.00;68.20;;;;;;5070068;28;20471;-62
2023/07/25 09:00:18;;;;;;;0.52;0.52;;;19.90;68.10;;;;;;5073500;28;20028;-62
2023/07/25 09:02:44;;;;;;;1.63;0.50;;;19.90;68.50;;;;;;5071272;28;20028;-62
2023/07/25 09:05:10;;;;;;;0.47;0.43;;;19.80;68.70;;;;;;5079041;28;20043;-62
2023/07/25 09:07:36;;;;;;;0.60;0.60;;;19.70;69.00;;;;;;5074961;28;21277;-62
2023/07/25 09:10:02;;;;;;;1.85;0.73;;;19.50;69.00;;;;;;5068070;28;20121;-62
2023/07/25 09:12:28;;;;;;;0.65;0.65;;;19.30;68.90;;;;;;5072939;28;20017;-62
2023/07/25 09:14:54;;;;;;;1.60;0.40;;;19.30;69.60;;;;;;5073408;28;20028;-62
2023/07/25 09:17:20;;;;;;;0.25;0.25;;;19.20;69.70;;;;;;5071483;28;20378;-62
2023/07/25 09:19:47;;;;;;;0.30;0.30;;;19.20;69.70;;;;;;5075787;28;20120;-62
2023/07/25 09:22:30;;;;;;;1.40;0.70;;;19.30;70.40;;;;;;5070675;28;20063;-62
2023/07/25 09:24:58;;;;;;;2.47;0.47;;;19.30;69.00;;;;;;5077439;28;20040;-62
2023/07/25 09:27:25;;;;;;;1.10;0.50;;;19.30;68.00;;;;;;5069345;28;20111;-62
2023/07/25 09:29:52;;;;;;;0.93;0.30;;;19.30;67.90;;;;;;5079174;28;20165;-61
2023/07/25 09:32:24;;;;;;;1.75;0.40;;;19.40;67.70;;;;;;5086422;28;20111;-62
2023/07/25 09:34:57;;;;;;;1.65;0.20;;;19.50;67.50;;;;;;5069645;28;20067;-62
2023/07/25 09:37:23;;;;;;;2.65;0.40;;;19.60;67.20;;;;;;5070710;28;20040;-62
2023/07/25 09:39:49;;;;;;;0.30;0.30;;;19.70;67.00;;;;;;5071399;28;20032;-63
2023/07/25 09:42:15;;;;;;;2.03;0.40;;;20.00;65.70;;;;;;5083370;28;20040;-62
2023/07/25 09:44:47;;;;;;;0.50;0.35;;;20.00;64.20;;;;;;5072294;28;20044;-62
2023/07/25 09:47:14;;;;;;;0.43;0.30;;;20.00;64.20;;;;;;5072137;28;20032;-62
2023/07/25 09:49:48;;;;;;;0.25;0.25;;;20.10;64.00;;;;;;5070993;28;20091;-62
2023/07/25 09:52:14;;;;;;;0.38;0.38;;;20.40;63.50;;;;;;5071620;28;20376;-62
2023/07/25 09:54:40;;;;;;;0.28;0.28;;;20.50;62.30;;;;;;5076141;28;20055;-63
2023/07/25 09:57:07;;;;;;;2.08;0.98;;;20.50;62.30;;;;;;5069805;28;20045;-63
2023/07/25 09:59:34;;;;;;;0.45;0.30;;;20.40;61.60;;;;;;5082038;28;20036;-62
2023/07/25 10:02:01;;;;;;;0.30;0.30;;;20.20;61.90;;;;;;5071347;28;20027;-62
2023/07/25 10:04:27;;;;;;;0.30;0.30;;;20.10;62.30;;;;;;5077635;28;20115;-62
2023/07/25 10:06:53;;;;;;;0.28;0.28;;;20.10;62.40;;;;;;5073845;28;20055;-62
2023/07/25 10:09:19;;;;;;;1.17;0.68;;;20.20;62.20;;;;;;5074801;28;20040;-62
2023/07/25 10:11:47;;;;;;;3.67;0.52;;;20.40;61.30;;;;;;5070294;28;20032;-62
2023/07/25 10:14:13;;;;;;;1.95;0.50;;;20.60;61.00;;;;;;5071646;28;20028;-62
2023/07/25 10:16:40;;;;;;;0.70;0.30;;;20.60;60.10;;;;;;5071212;28;20472;-62
2023/07/25 10:19:06;;;;;;;0.30;0.30;;;20.50;58.80;;;;;;5077011;28;20021;-62
2023/07/25 10:21:53;;;;;;;0.90;0.30;;;20.60;59.20;;;;;;5065320;28;20052;-62
2023/07/25 10:24:21;;;;;;;0.28;0.28;;;21.00;59.10;;;;;;5072064;28;20047;-63
2023/07/25 10:26:58;;;;;;;0.30;0.30;;;21.30;58.30;;;;;;5069324;28;20035;-62
2023/07/25 10:29:44;;;;;;;0.82;0.30;;;21.60;57.90;;;;;;5067166;28;20044;-62
2023/07/25 10:32:16;;;;;;;5.57;0.47;;;21.80;55.70;;;;;;5076356;28;20021;-60
2023/07/25 10:35:05;;;;;;;0.28;0.28;;;21.60;56.30;;;;;;5072567;28;20039;-62
2023/07/25 10:37:41;;;;;;;0.43;0.40;;;21.30;56.10;;;;;;5068522;28;20108;-62
2023/07/25 10:40:15;;;;;;;1.38;0.30;;;21.00;57.40;;;;;;5072618;28;20026;-62
2023/07/25 10:42:50;;;;;;;0.20;0.20;;;20.80;57.30;;;;;;5072606;28;20012;-60
2023/07/25 10:45:45;;;;;;;0.20;0.20;;;20.90;57.80;;;;;;5075948;28;20086;-60
2023/07/25 10:48:35;;;;;;;0.95;0.32;;;21.30;57.40;;;;;;5073004;28;20036;-60
2023/07/25 10:51:06;;;;;;;0.45;0.43;;;21.70;56.70;;;;;;5074550;28;20038;-62
2023/07/25 10:53:32;;;;;;;0.30;0.30;;;22.10;55.50;;;;;;5071431;28;20507;-62
2023/07/25 10:56:04;;;;;;;1.30;0.70;;;22.40;55.40;;;;;;5072516;28;20051;-61
2023/07/25 10:58:31;;;;;;;0.35;0.35;;;22.60;54.30;;;;;;5070100;28;20056;-60
2023/07/25 11:00:57;;;;;;;0.28;0.28;;;22.70;53.30;;;;;;5075519;28;20021;-62
2023/07/25 11:03:28;;;;;;;0.20;0.20;;;22.90;52.60;;;;;;5075283;28;20028;-61
2023/07/25 11:06:08;;;;;;;0.30;0.30;;;23.00;52.30;;;;;;5073006;28;20437;-61
2023/07/25 11:08:39;;;;;;;0.38;0.38;;;23.00;50.90;;;;;;5074956;28;20025;-61
2023/07/25 11:11:10;;;;;;;0.20;0.20;;;22.80;52.10;;;;;;5070417;28;20060;-61
2023/07/25 11:13:38;;;;;;;0.65;0.50;;;22.50;52.80;;;;;;5058058;28;20040;-61
2023/07/25 11:16:05;;;;;;;0.45;0.40;;;22.20;53.30;;;;;;5071800;28;20056;-61
2023/07/25 11:18:37;;;;;;;1.58;0.30;;;22.00;53.80;;;;;;5072445;28;20029;-62
2023/07/25 11:21:07;;;;;;;0.25;0.25;;;22.10;53.50;;;;;;5071708;28;20452;-61
2023/07/25 11:23:34;;;;;;;1.48;0.43;;;22.40;53.70;;;;;;5066903;28;20041;-61
2023/07/25 11:26:08;;;;;;;0.45;0.30;;;22.70;52.00;;;;;;5075992;28;20068;-62
2023/07/25 11:28:37;;;;;;;3.83;0.30;;;22.70;52.10;;;;;;5060742;28;20029;-62
2023/07/25 11:31:03;;;;;;;0.85;0.40;;;22.60;52.80;;;;;;5068132;28;20025;-61
2023/07/25 11:33:41;;;;;;;0.20;0.20;;;22.70;53.00;;;;;;5067996;28;20029;-61
2023/07/25 11:36:07;;;;;;;1.00;0.32;;;22.90;53.00;;;;;;5068117;28;20060;-61
2023/07/25 11:38:35;;;;;;;0.30;0.30;;;23.30;52.00;;;;;;5066356;28;20489;-61
2023/07/25 11:41:01;;;;;;;0.50;0.30;;;23.60;51.10;;;;;;5069763;28;20732;-61
2023/07/25 11:43:31;;;;;;;0.30;0.30;;;23.80;51.00;;;;;;5065984;28;20107;-61
2023/07/25 11:45:57;;;;;;;0.40;0.40;;;24.10;50.50;;;;;;5064589;28;20044;-61
2023/07/25 11:48:23;;;;;;;0.38;0.30;;;24.20;49.70;;;;;;5073635;28;20379;-61
2023/07/25 11:50:52;;;;;;;0.30;0.30;;;24.40;49.90;;;;;;5066929;28;20027;-61
2023/07/25 11:53:22;;;;;;;0.55;0.43;;;24.40;48.20;;;;;;5070903;28;20128;-61
2023/07/25 11:55:52;;;;;;;0.47;0.30;;;24.10;48.70;;;;;;5065999;28;20028;-61
2023/07/25 11:58:19;;;;;;;0.30;0.30;;;23.60;47.70;;;;;;5069588;28;20029;-61
2023/07/25 12:00:51;;;;;;;0.30;0.30;;;23.30;49.30;;;;;;5063400;28;20074;-61
2023/07/25 12:03:25;;;;;;;0.20;0.20;;;23.20;49.90;;;;;;5058790;28;20143;-62
2023/07/25 12:05:59;;;;;;;1.73;0.30;;;23.50;50.40;;;;;;5072580;28;20033;-62
2023/07/25 12:08:34;;;;;;;0.30;0.30;;;24.00;50.00;;;;;;5064672;28;20035;-61
2023/07/25 12:11:09;;;;;;;0.43;0.43;;;24.30;49.20;;;;;;5074888;28;20083;-61
2023/07/25 12:13:43;;;;;;;0.30;0.30;;;24.60;48.40;;;;;;5074430;28;20032;-61
2023/07/25 12:16:25;;;;;;;0.77;0.50;;;24.90;47.90;;;;;;5085826;28;20047;-61
2023/07/25 12:18:53;;;;;;;1.00;0.25;;;25.10;47.20;;;;;;5074203;28;20356;-61
2023/07/25 12:21:30;;;;;;;0.40;0.40;;;25.10;46.60;;;;;;5082186;28;20020;-62
2023/07/25 12:24:01;;;;;;;0.40;0.40;;;24.90;46.30;;;;;;5072408;28;20513;-61
2023/07/25 12:26:27;;;;;;;0.40;0.40;;;24.30;47.00;;;;;;5077501;28;20024;-61
2023/07/25 12:28:54;;;;;;;0.35;0.35;;;23.80;47.10;;;;;;5074738;28;20025;-61
2023/07/25 12:31:21;;;;;;;0.20;0.20;;;23.50;49.00;;;;;;5076198;28;20030;-61
2023/07/25 12:33:49;;;;;;;0.85;0.45;;;23.30;48.30;;;;;;5078173;28;20064;-61
2023/07/25 12:36:17;;;;;;;0.22;0.22;;;23.00;49.00;;;;;;5074337;28;20040;-61
2023/07/25 12:38:43;;;;;;;0.80;0.30;;;22.90;49.20;;;;;;5072408;28;20078;-61
2023/07/25 12:41:09;;;;;;;0.57;0.40;;;22.80;49.60;;;;;;5072829;28;20036;-61
2023/07/25 12:43:35;;;;;;;0.20;0.20;;;23.00;49.80;;;;;;5074313;28;20029;-61
2023/07/25 12:46:01;;;;;;;0.40;0.38;;;23.40;49.60;;;;;;5070179;28;20684;-61
2023/07/25 12:48:27;;;;;;;0.47;0.30;;;23.80;49.40;;;;;;5074708;28;20025;-61